Flugplatz Kührstedt-Bederkesa

Für EDXZ sind keine METAR/TAF Berichte vorhanden.
Es werden die Flugwettermeldungen vom Flugplatz Nordholz Airport in 23 km Entfernung angezeigt.

Bericht für ETMN

vom 23.08. um 12:20 UTC

Wind 6 kt aus 260°

Sichtweite 10 km oder mehr

aufgebrochene Bewölkung in 29000 ft

Temperatur 23.0°C

Taupunkt 12.0°C

Luftfeuchtigkeit 50%

Luftdruck 1026 hPa

ETMN 231220Z 26006KT 9999 BKN290 23/12 Q1026 BLU+BLU+

Prognose für ETMN

vom 23.08. um 00:00 UTC

Zwischen 00:00 UTC und 00:00 UTC

Wind 7 kt aus 240°

Sichtweite 10 km oder mehr

keine signifikanten Wettererscheinungen

aufgebrochene Bewölkung in 28000 ft


Zwischen 00:00 und 00:00 UTC übergehend zu

Wind 5 kt aus 350°

Sichtweite 10 km oder mehr

keine signifikanten Wettererscheinungen

gering bewölkt in 15000 ft

aufgebrochene Bewölkung in 27000 ft

TAF ETMN 231014Z 2311/2320 24007KT 9999 NSW BKN280 BECMG 2312/2314 35005KT 9999 NSW FEW150 BKN270
Impressum